CZFN/ZFN METAR and TAF weather

Enter ICAO airport designator
Station Type Date Time Source
CZFN METAR 2021/05/10 23:00 UTC NOAA

CZFN 102300Z 15006KT 030V170 15SM BKN040 08/M03 A3024 RMK CU6 LAST STFD OBS NEXT 111500 SLP249


Station Type Date Time Source
CZFN Decoded METAR 2021/05/10 23:00 UTC NOAA

Fort Norman Airport, Canada (CZFN) 64-55N 125-34W
May 10, 2021 - 07:00 PM EDT / 2021.05.10 2300 UTC
Wind: from the SSE (150 degrees) at 7 MPH (6 KT) (direction variable):0
Visibility: 15 mile(s):0
Sky conditions: mostly cloudy
Temperature: 46 F (8 C)
Dew Point: 26 F (-3 C)
Relative Humidity: 45%
Pressure (altimeter): 30.24 in. Hg (1024 hPa)
ob: CZFN 102300Z 15006KT 030V170 15SM BKN040 08/M03 A3024 RMK CU6 LAST STFD OBS NEXT 111500 SLP249
cycle: 23

Station Type Date Time Source
CZFN TAF UTC NOAA

Error!

Example: see airport list